Yona, GU

10:26 PM ChST on August 30, 2014 (GMT +1000)
Ordot Dump | Change Station
CLOSE
Current Station
Personal Weather Station
Location: Chalan Pago Ordot,
Elevation: 282 ft
Nearby Weather Stations

Elev 282 ft 13.44 °N, 144.75 °E | Updated 0 second ago

Partly Cloudy
Partly Cloudy
77.0 °F
Feels Like 78 °F
N
0.0
Wind Variable Wind from East
Gusts 0.0 mph

Today
High -- | Low -- °F
--% Chance of Precip.
Yesterday
High -- | Low -- °F
Precip. -- in
6:09 AM 6:34 PM
Waxing Crescent, 21% visible
Pressure 29.78 in
Visibility 10.0 miles
Clouds Few 2000 ft
Heat Index 78 °F
Dew Point 76 °F
Humidity 98%
Rainfall 1.25 in
Snow Depth Not available.
UV 0 out of 12
Pollen Not available.
Air Quality Not available.
Flu Activity Not available.
METAR PGUM 301154Z 06003KT 10SM FEW020 27/24 A2980 RMK AO2 SLP083 70066 T02670244 10294 20267 53014

More Conditions Fewer Conditions

Pressure 29.78 in
Visibility 10.0 miles
Clouds Few 2000 ft
Heat Index 78 °F
Dew Point 76 °F
Humidity 98%
Rainfall 1.25 in
Snow Depth Not available.
UV 0 out of 12
Pollen Not available.
Air Quality Not available.
Flu Activity Not available.
METAR PGUM 301154Z 06003KT 10SM FEW020 27/24 A2980 RMK AO2 SLP083 70066 T02670244 10294 20267 53014

More Conditions Fewer Conditions

10-Day Weather Forecast

Almanac

Astronomy

Aug. 30, 2014 Rise Set
Actual Time 6:09 AM ChST 6:34 PM ChST
Civil Twilight 5:48 AM ChST 6:55 PM ChST
Nautical Twilight 5:23 AM ChST 7:20 PM ChST
Astronomical Twilight 4:57 AM ChST 7:46 PM ChST
Moon 9:32 AM ChST 9:34 PM ChST
Length of Visible Light 13h 07m
Length of Day
12h 24m
Tomorrow will be 0m 43s shorter.
Waxing Crescent, 21% of the Moon is Illuminated
Today
Waxing Crescent
Sep 2
First Quarter
Sep 8
Full
Sep 15
Last Quarter
Sep 24
New

Community

WunderPhotos

Upload Photos

1,748,500 photos uploaded!

WunderBlogs® & News

By Dr. Jeff Masters
Director of Meteorology, Weather Underground
By Kari Strenfel
Meteorologist, Weather Underground
By Christopher C. Burt
Weather Historian, Weather Underground
August 30, 2014
August 30, 2014
August 30, 2014

Nearby

Snow Depth

Station Depth Elevation
No new snow has been reported.

Earthquake Activity

City Distance Mag. Time & Date
No recent earthquake activity has been reported nearby.
Minimum magnitude displayed is 2.5.

Coastal Water Temperatures

Place Temperature
No Stations Reporting

Nearby Weather Stations